Time;durP1;ratioP1;P1;durP2;ratioP2;P2;SDS_P1;SDS_P2;PMS_P1;PMS_P2;Temp;Humidity;BMP_temperature;BMP_pressure;BME280_temperature;BME280_humidity;BME280_pressure;Samples;Min_cycle;Max_cycle;Signal;HPM_P1;HPM_P2
2022/04/16 00:01:49;;;;;;;7.95;6.07;;;8.50;99.90;;;;;;6268750;22;20360;-54
2022/04/16 00:04:15;;;;;;;7.88;5.50;;;8.50;99.90;;;;;;6268019;22;20778;-55
2022/04/16 00:06:40;;;;;;;9.38;6.00;;;8.60;99.90;;;;;;6269816;22;20374;-57
2022/04/16 00:09:06;;;;;;;7.60;6.10;;;8.50;99.90;;;;;;6270360;22;20511;-56
2022/04/16 00:11:32;;;;;;;7.32;5.53;;;8.40;99.90;;;;;;6270891;22;20345;-56
2022/04/16 00:13:57;;;;;;;10.60;6.50;;;8.30;99.90;;;;;;6271364;22;20353;-56
2022/04/16 00:16:23;;;;;;;6.70;5.77;;;8.30;99.90;;;;;;6271624;22;20704;-56
2022/04/16 00:18:49;;;;;;;7.55;5.55;;;8.30;99.90;;;;;;6274079;22;20501;-55
2022/04/16 00:21:15;;;;;;;7.30;5.50;;;8.30;99.90;;;;;;6272546;22;20344;-57
2022/04/16 00:23:43;;;;;;;8.10;5.73;;;8.20;99.90;;;;;;6273908;22;20758;-56
2022/04/16 00:26:12;;;;;;;7.95;5.28;;;8.20;99.90;;;;;;6274687;22;20360;-57
2022/04/16 00:28:38;;;;;;;8.65;5.75;;;8.20;99.90;;;;;;6273307;22;20587;-55
2022/04/16 00:31:04;;;;;;;7.43;5.10;;;8.20;99.90;;;;;;6270846;22;20344;-54
2022/04/16 00:33:30;;;;;;;8.48;5.63;;;8.20;99.90;;;;;;6268835;22;20510;-57
2022/04/16 00:35:55;;;;;;;9.00;5.03;;;8.10;99.90;;;;;;6271704;22;20499;-54
2022/04/16 00:38:21;;;;;;;6.00;4.67;;;8.00;99.90;;;;;;6272367;22;20662;-57
2022/04/16 00:40:48;;;;;;;4.90;4.20;;;8.00;99.90;;;;;;6271896;22;20359;-56
2022/04/16 00:43:25;;;;;;;6.63;4.60;;;7.90;99.90;;;;;;6245996;22;20375;-58
2022/04/16 00:45:52;;;;;;;5.63;4.25;;;8.00;99.90;;;;;;6246370;22;20397;-57
2022/04/16 00:48:19;;;;;;;5.20;4.15;;;7.90;99.90;;;;;;6273054;22;20447;-54
2022/04/16 00:50:44;;;;;;;6.82;4.18;;;7.90;99.90;;;;;;6273433;22;20340;-55
2022/04/16 00:53:12;;;;;;;5.57;3.93;;;7.80;99.90;;;;;;6245598;22;20344;-57
2022/04/16 00:55:38;;;;;;;6.20;4.22;;;7.90;99.90;;;;;;6270680;22;20348;-55
2022/04/16 00:58:03;;;;;;;7.63;4.03;;;7.90;99.90;;;;;;6271205;22;20351;-56
2022/04/16 01:00:29;;;;;;;5.97;4.07;;;7.90;99.90;;;;;;6244208;22;20406;-53
2022/04/16 01:02:58;;;;;;;5.25;3.88;;;7.80;99.90;;;;;;6243726;22;20445;-58
2022/04/16 01:05:24;;;;;;;5.78;3.55;;;7.80;99.90;;;;;;6245961;22;20646;-55
2022/04/16 01:07:57;;;;;;;6.57;4.05;;;7.80;99.90;;;;;;6273650;22;20344;-56
2022/04/16 01:10:26;;;;;;;5.43;3.88;;;7.80;99.90;;;;;;6245546;22;20433;-56
2022/04/16 01:12:55;;;;;;;4.72;3.75;;;7.80;99.90;;;;;;6272805;22;20458;-52
2022/04/16 01:15:23;;;;;;;5.97;3.90;;;7.80;99.90;;;;;;6271903;22;20761;-53
2022/04/16 01:17:50;;;;;;;4.93;3.78;;;7.70;99.90;;;;;;6246437;22;20604;-54
2022/04/16 01:20:16;;;;;;;5.38;3.53;;;7.70;99.90;;;;;;6246587;22;20359;-52
2022/04/16 01:22:43;;;;;;;6.15;3.90;;;7.60;99.90;;;;;;6244645;22;20751;-56
2022/04/16 01:25:08;;;;;;;4.90;3.67;;;7.60;99.90;;;;;;6270707;22;20375;-58
2022/04/16 01:27:35;;;;;;;6.47;3.80;;;7.60;99.90;;;;;;6273216;22;20406;-59
2022/04/16 01:30:03;;;;;;;6.53;3.70;;;7.60;99.90;;;;;;6271037;22;20344;-57
2022/04/16 01:32:32;;;;;;;4.53;3.53;;;7.50;99.90;;;;;;6244732;22;20348;-58
2022/04/16 01:35:00;;;;;;;7.38;3.92;;;7.50;99.90;;;;;;6244886;22;20627;-58
2022/04/16 01:37:31;;;;;;;4.15;3.33;;;7.40;99.90;;;;;;6257791;22;20395;-58
2022/04/16 01:39:58;;;;;;;5.35;3.42;;;7.40;99.90;;;;;;6272383;22;20382;-57
2022/04/16 01:42:23;;;;;;;4.35;3.50;;;7.40;99.90;;;;;;6271681;22;20733;-58
2022/04/16 01:44:51;;;;;;;6.15;3.70;;;7.40;99.90;;;;;;6272065;22;20360;-56
2022/04/16 01:47:16;;;;;;;4.53;3.50;;;7.40;99.90;;;;;;6272343;22;20341;-58
2022/04/16 01:49:42;;;;;;;4.50;3.30;;;7.30;99.90;;;;;;6271624;22;20383;-57
2022/04/16 01:52:09;;;;;;;5.35;3.72;;;7.30;99.90;;;;;;6271766;22;20351;-58
2022/04/16 01:54:35;;;;;;;5.38;3.60;;;7.20;99.90;;;;;;6272081;22;20379;-56
2022/04/16 01:57:01;;;;;;;5.55;3.90;;;7.20;99.90;;;;;;6271930;22;20376;-57
2022/04/16 01:59:28;;;;;;;5.78;3.42;;;7.20;99.90;;;;;;6271771;22;20405;-57
2022/04/16 02:01:56;;;;;;;5.30;3.80;;;7.10;99.90;;;;;;6271971;22;20350;-55
2022/04/16 02:04:22;;;;;;;6.38;3.42;;;7.10;99.90;;;;;;6271559;22;20431;-58
2022/04/16 02:06:52;;;;;;;4.32;3.22;;;7.10;99.90;;;;;;6273719;22;20477;-58
2022/04/16 02:09:17;;;;;;;3.92;3.50;;;7.10;99.90;;;;;;6272667;22;20351;-57
2022/04/16 02:11:44;;;;;;;5.00;3.70;;;7.10;99.90;;;;;;6269671;22;20345;-56
2022/04/16 02:14:09;;;;;;;6.03;3.90;;;7.10;99.90;;;;;;6271600;22;20340;-57
2022/04/16 02:16:35;;;;;;;6.28;4.05;;;7.00;99.90;;;;;;6272047;22;20343;-55
2022/04/16 02:19:00;;;;;;;5.90;3.60;;;6.90;99.90;;;;;;6273020;22;20347;-53
2022/04/16 02:21:27;;;;;;;6.17;3.37;;;6.90;99.90;;;;;;6273882;22;20401;-54
2022/04/16 02:23:53;;;;;;;3.95;3.40;;;6.90;99.90;;;;;;6272228;22;20373;-58
2022/04/16 02:26:22;;;;;;;4.38;3.10;;;6.90;99.90;;;;;;6274463;22;20344;-58
2022/04/16 02:28:50;;;;;;;4.55;3.33;;;6.80;99.90;;;;;;6273340;22;20344;-55
2022/04/16 02:31:16;;;;;;;6.18;2.95;;;6.80;99.90;;;;;;6272165;22;20384;-57
2022/04/16 02:33:42;;;;;;;4.85;3.05;;;6.70;99.90;;;;;;6272448;22;20344;-57
2022/04/16 02:36:08;;;;;;;4.07;3.10;;;6.70;99.90;;;;;;6273379;22;20348;-58
2022/04/16 02:38:34;;;;;;;5.22;3.10;;;6.70;99.90;;;;;;6246101;22;20367;-56
2022/04/16 02:41:00;;;;;;;4.97;2.90;;;6.70;99.90;;;;;;6273897;22;20388;-58
2022/04/16 02:43:25;;;;;;;4.10;2.90;;;6.70;99.90;;;;;;6245475;22;20344;-58
2022/04/16 02:48:37;;;;;;;3.65;2.72;;;6.60;99.90;;;;;;6270841;22;20340;-57
2022/04/16 02:51:03;;;;;;;4.15;2.38;;;6.50;99.90;;;;;;6243250;22;20344;-54
2022/04/16 02:53:29;;;;;;;4.93;2.58;;;6.60;99.90;;;;;;6242292;22;20664;-55
2022/04/16 02:55:55;;;;;;;4.90;2.70;;;6.60;99.90;;;;;;6244824;22;20355;-57
2022/04/16 02:58:21;;;;;;;5.03;2.20;;;6.60;99.90;;;;;;6244728;22;20340;-56
2022/04/16 03:00:47;;;;;;;4.00;2.67;;;6.60;99.90;;;;;;6272020;22;20383;-58
2022/04/16 03:03:13;;;;;;;3.65;2.40;;;6.60;99.90;;;;;;6245978;22;20409;-57
2022/04/16 03:05:39;;;;;;;3.83;2.45;;;6.50;99.90;;;;;;6245661;22;20699;-55
2022/04/16 03:08:10;;;;;;;3.70;2.53;;;6.50;99.90;;;;;;6245268;22;20745;-58
2022/04/16 03:10:35;;;;;;;4.72;2.65;;;6.50;99.90;;;;;;6270276;22;20343;-57
2022/04/16 03:13:01;;;;;;;3.92;2.95;;;6.50;99.90;;;;;;6246811;22;20355;-57
2022/04/16 03:18:11;;;;;;;3.38;2.30;;;6.40;99.90;;;;;;6272527;22;20390;-57
2022/04/16 03:20:39;;;;;;;3.50;2.20;;;6.40;99.90;;;;;;6247073;22;20356;-57
2022/04/16 03:23:05;;;;;;;4.75;2.33;;;6.40;99.90;;;;;;6247026;22;20389;-58
2022/04/16 03:25:31;;;;;;;3.47;2.37;;;6.40;99.90;;;;;;6247196;22;20922;-56
2022/04/16 03:27:57;;;;;;;2.67;2.10;;;6.30;99.90;;;;;;6273232;22;20340;-58
2022/04/16 03:30:23;;;;;;;4.10;2.13;;;6.30;99.90;;;;;;6246317;22;21204;-54
2022/04/16 03:32:50;;;;;;;2.60;2.17;;;6.30;99.90;;;;;;6271325;22;20379;-53
2022/04/16 03:35:18;;;;;;;3.35;2.42;;;6.30;99.90;;;;;;6243775;22;20375;-54
2022/04/16 03:37:44;;;;;;;3.83;2.30;;;6.20;99.90;;;;;;6271473;22;20395;-57
2022/04/16 03:40:12;;;;;;;3.37;2.37;;;6.20;99.90;;;;;;6246000;22;20371;-57
2022/04/16 03:42:52;;;;;;;4.15;2.10;;;6.20;99.90;;;;;;6274360;22;20356;-56
2022/04/16 03:45:38;;;;;;;4.40;1.90;;;6.20;99.90;;;;;;6276046;22;20364;-55
2022/04/16 03:48:05;;;;;;;3.35;1.77;;;6.10;99.90;;;;;;6249750;22;20745;-59
2022/04/16 03:50:32;;;;;;;3.50;2.27;;;6.20;99.90;;;;;;6249453;22;20400;-57
2022/04/16 03:52:58;;;;;;;3.25;2.03;;;6.20;99.90;;;;;;6275815;22;20761;-55
2022/04/16 04:00:56;;;;;;;3.40;2.05;;;6.10;99.90;;;;;;6274319;22;20405;-57
2022/04/16 04:03:22;;;;;;;2.80;1.92;;;6.10;99.90;;;;;;6273260;22;20344;-57
2022/04/16 04:05:49;;;;;;;2.78;2.10;;;6.10;99.90;;;;;;6270992;22;20352;-57
2022/04/16 04:08:16;;;;;;;4.88;1.90;;;6.00;99.90;;;;;;6247909;22;20379;-56
2022/04/16 04:10:41;;;;;;;2.90;1.80;;;6.00;99.90;;;;;;6247345;22;20375;-55
2022/04/16 04:13:07;;;;;;;4.22;2.00;;;6.00;99.90;;;;;;6274730;22;20615;-58
2022/04/16 04:15:32;;;;;;;3.10;1.90;;;6.00;99.90;;;;;;6249655;22;20388;-58
2022/04/16 04:17:59;;;;;;;3.47;1.83;;;6.00;99.90;;;;;;6275937;22;20383;-56
2022/04/16 04:20:28;;;;;;;3.92;2.10;;;5.90;99.90;;;;;;6247057;22;20353;-56
2022/04/16 04:22:54;;;;;;;3.65;1.85;;;5.90;99.90;;;;;;6245498;22;20362;-58
2022/04/16 04:25:20;;;;;;;2.97;2.00;;;5.90;99.90;;;;;;6245260;22;20452;-55
2022/04/16 04:27:46;;;;;;;4.70;2.10;;;5.90;99.90;;;;;;6246145;22;20810;-58
2022/04/16 04:30:12;;;;;;;3.15;1.70;;;5.90;99.90;;;;;;6244565;22;20471;-58
2022/04/16 04:32:38;;;;;;;3.05;2.10;;;5.90;99.90;;;;;;6243902;22;20383;-57
2022/04/16 04:35:08;;;;;;;3.83;2.30;;;6.00;99.90;;;;;;6243903;22;20348;-59
2022/04/16 04:37:34;;;;;;;3.80;2.10;;;6.00;99.90;;;;;;6258494;22;20439;-57
2022/04/16 04:40:00;;;;;;;2.90;1.95;;;5.90;99.90;;;;;;6268904;22;20761;-58
2022/04/16 04:42:28;;;;;;;3.97;2.03;;;5.90;99.90;;;;;;6270521;22;20368;-58
2022/04/16 04:44:54;;;;;;;2.50;2.13;;;5.90;99.90;;;;;;6268801;22;20376;-58
2022/04/16 04:47:20;;;;;;;2.60;2.05;;;6.00;99.90;;;;;;6272588;22;20427;-58
2022/04/16 04:49:45;;;;;;;3.03;2.05;;;6.00;99.90;;;;;;6268915;22;20757;-57
2022/04/16 04:52:19;;;;;;;2.73;2.17;;;6.00;99.90;;;;;;6268109;22;20372;-58
2022/04/16 04:54:44;;;;;;;4.55;2.38;;;6.00;99.90;;;;;;6267828;22;20455;-55
2022/04/16 04:57:10;;;;;;;2.75;2.00;;;6.00;99.90;;;;;;6266346;22;20352;-58
2022/04/16 04:59:35;;;;;;;3.53;2.20;;;5.90;99.90;;;;;;6267440;22;20637;-55
2022/04/16 05:02:01;;;;;;;3.50;2.10;;;5.90;99.90;;;;;;6268654;22;20359;-58
2022/04/16 05:04:26;;;;;;;3.73;2.00;;;5.90;99.90;;;;;;6268141;22;21053;-57
2022/04/16 05:06:52;;;;;;;3.47;2.00;;;5.90;99.90;;;;;;6267941;22;20398;-58
2022/04/16 05:09:17;;;;;;;5.53;2.23;;;5.90;99.90;;;;;;6269178;22;20425;-57
2022/04/16 05:11:43;;;;;;;2.83;1.83;;;5.90;99.90;;;;;;6271509;22;20352;-58
2022/04/16 05:14:08;;;;;;;2.67;1.90;;;5.90;99.90;;;;;;6271688;22;20551;-58
2022/04/16 05:16:34;;;;;;;3.30;1.80;;;5.90;99.90;;;;;;6270855;22;20439;-56
2022/04/16 05:18:59;;;;;;;3.20;2.08;;;5.90;99.90;;;;;;6271018;22;20588;-58
2022/04/16 05:21:25;;;;;;;3.33;1.97;;;5.90;99.90;;;;;;6272432;22;20355;-56
2022/04/16 05:23:50;;;;;;;4.00;2.00;;;5.90;99.90;;;;;;6270582;22;20767;-58
2022/04/16 05:26:16;;;;;;;3.05;1.90;;;5.90;99.90;;;;;;6271435;22;20353;-58
2022/04/16 05:28:41;;;;;;;2.15;1.65;;;6.00;99.90;;;;;;6269447;22;20336;-55
2022/04/16 05:31:07;;;;;;;2.53;1.80;;;6.00;99.90;;;;;;6268559;22;20483;-56
2022/04/16 05:36:17;;;;;;;2.65;1.65;;;6.10;99.90;;;;;;6267177;22;20394;-56
2022/04/16 05:38:44;;;;;;;3.35;1.60;;;6.10;99.90;;;;;;6243942;22;20394;-58
2022/04/16 05:41:09;;;;;;;2.77;1.70;;;6.10;99.90;;;;;;6243080;22;20353;-56
2022/04/16 05:43:35;;;;;;;3.33;1.80;;;6.20;99.90;;;;;;6270064;22;20421;-58
2022/04/16 05:46:02;;;;;;;2.80;1.55;;;6.20;99.90;;;;;;6243238;22;20351;-58
2022/04/16 05:48:28;;;;;;;3.75;1.75;;;6.20;99.90;;;;;;6243923;22;20698;-57
2022/04/16 05:50:57;;;;;;;4.10;1.85;;;6.30;99.90;;;;;;6246308;22;20354;-57
2022/04/16 05:53:23;;;;;;;3.63;1.67;;;6.30;99.90;;;;;;6270906;22;20737;-58
2022/04/16 05:55:52;;;;;;;4.27;1.80;;;6.30;99.90;;;;;;6243241;22;20583;-58
2022/04/16 05:58:18;;;;;;;2.33;1.70;;;6.30;99.90;;;;;;6239726;22;20348;-58
2022/04/16 06:00:44;;;;;;;3.63;1.70;;;6.40;99.90;;;;;;6240347;22;20357;-57
2022/04/16 06:03:09;;;;;;;3.30;1.70;;;6.40;99.90;;;;;;6240128;22;20352;-58
2022/04/16 06:05:36;;;;;;;2.45;1.60;;;6.40;99.90;;;;;;6240721;22;20392;-56
2022/04/16 06:08:02;;;;;;;4.18;1.70;;;6.50;99.90;;;;;;6268053;22;20374;-58
2022/04/16 06:10:28;;;;;;;2.50;1.53;;;6.50;99.90;;;;;;6241716;22;20363;-58
2022/04/16 06:12:53;;;;;;;3.40;1.70;;;6.50;99.90;;;;;;6240263;22;20336;-59
2022/04/16 06:15:19;;;;;;;2.87;1.70;;;6.50;99.90;;;;;;6265342;22;20347;-58
2022/04/16 06:17:45;;;;;;;3.80;1.90;;;6.60;99.90;;;;;;6266684;22;20377;-58
2022/04/16 06:20:11;;;;;;;3.67;1.77;;;6.60;99.90;;;;;;6241245;22;20760;-58
2022/04/16 06:22:37;;;;;;;2.42;1.75;;;6.70;99.90;;;;;;6267803;22;20340;-57
2022/04/16 06:25:03;;;;;;;2.67;1.70;;;6.70;99.90;;;;;;6238619;22;20793;-57
2022/04/16 06:27:29;;;;;;;4.07;1.48;;;6.80;99.90;;;;;;6242331;22;20447;-58
2022/04/16 06:29:55;;;;;;;3.00;1.60;;;6.80;99.90;;;;;;6270840;22;20611;-56
2022/04/16 06:32:20;;;;;;;2.50;1.63;;;6.90;99.90;;;;;;6243520;22;20340;-59
2022/04/16 06:34:46;;;;;;;3.00;1.50;;;6.90;99.90;;;;;;6241935;22;20352;-57
2022/04/16 06:37:11;;;;;;;3.80;1.63;;;6.90;99.90;;;;;;6253751;22;20390;-58
2022/04/16 06:39:37;;;;;;;3.37;1.27;;;7.00;99.90;;;;;;6270152;22;20654;-57
2022/04/16 06:42:03;;;;;;;2.08;1.40;;;7.00;99.90;;;;;;6268014;22;20714;-58
2022/04/16 06:44:31;;;;;;;3.70;1.30;;;7.10;99.90;;;;;;6267181;22;20375;-58
2022/04/16 06:46:57;;;;;;;2.25;1.23;;;7.10;99.90;;;;;;6267344;22;20410;-57
2022/04/16 06:49:25;;;;;;;2.63;1.48;;;7.10;99.90;;;;;;6268800;22;20344;-58
2022/04/16 06:51:51;;;;;;;2.33;1.20;;;7.20;99.90;;;;;;6267434;22;20666;-57
2022/04/16 06:54:17;;;;;;;1.65;1.00;;;7.20;99.90;;;;;;6265931;22;20517;-57
2022/04/16 06:56:42;;;;;;;1.43;0.90;;;7.30;99.90;;;;;;6265900;22;20398;-58
2022/04/16 06:59:08;;;;;;;2.10;1.00;;;7.30;99.90;;;;;;6263575;22;20471;-59
2022/04/16 07:01:34;;;;;;;1.85;1.00;;;7.30;99.90;;;;;;6264847;22;20364;-58
2022/04/16 07:03:59;;;;;;;1.57;1.20;;;7.40;99.90;;;;;;6266002;22;20649;-58
2022/04/16 07:06:25;;;;;;;1.55;1.30;;;7.40;99.90;;;;;;6266943;22;20380;-59
2022/04/16 07:08:50;;;;;;;2.73;1.23;;;7.50;99.90;;;;;;6268117;22;20384;-59
2022/04/16 07:11:16;;;;;;;1.55;1.02;;;7.50;99.90;;;;;;6269636;22;20407;-54
2022/04/16 07:13:41;;;;;;;1.97;1.07;;;7.60;99.90;;;;;;6267179;22;20340;-57
2022/04/16 07:16:07;;;;;;;2.03;1.00;;;7.60;99.90;;;;;;6267099;22;20489;-59
2022/04/16 07:18:33;;;;;;;2.23;1.10;;;7.60;99.90;;;;;;6267428;22;20382;-58
2022/04/16 07:20:58;;;;;;;1.80;0.90;;;7.70;99.90;;;;;;6266521;22;20348;-57
2022/04/16 07:23:24;;;;;;;0.90;0.70;;;7.70;99.90;;;;;;6266291;22;20455;-57
2022/04/16 07:25:49;;;;;;;1.53;0.93;;;7.70;99.90;;;;;;6266611;22;20352;-59
2022/04/16 07:28:21;;;;;;;2.30;0.90;;;7.80;99.90;;;;;;6267725;22;20757;-59
2022/04/16 07:30:48;;;;;;;2.25;0.80;;;7.80;99.90;;;;;;6268748;22;20372;-59
2022/04/16 07:33:13;;;;;;;1.63;0.82;;;7.80;99.90;;;;;;6267500;22;20800;-58
2022/04/16 07:35:39;;;;;;;1.00;0.70;;;7.90;99.90;;;;;;6268212;22;20352;-56
2022/04/16 07:38:05;;;;;;;1.10;0.80;;;7.90;99.90;;;;;;6270223;22;20592;-55
2022/04/16 07:40:31;;;;;;;1.40;0.90;;;7.90;99.90;;;;;;6241686;22;20394;-57
2022/04/16 07:42:58;;;;;;;2.20;0.90;;;8.00;99.90;;;;;;6244362;22;20557;-59
2022/04/16 07:45:23;;;;;;;1.35;0.73;;;8.00;99.90;;;;;;6243574;22;20637;-59
2022/04/16 07:47:49;;;;;;;1.93;1.07;;;8.10;99.90;;;;;;6270111;22;20346;-59
2022/04/16 07:50:16;;;;;;;1.60;0.80;;;8.10;99.90;;;;;;6244618;22;20742;-56
2022/04/16 07:52:42;;;;;;;1.53;0.80;;;8.10;99.90;;;;;;6241916;22;20391;-58
2022/04/16 07:55:08;;;;;;;2.70;1.08;;;8.20;99.90;;;;;;6241226;22;20351;-59
2022/04/16 07:57:33;;;;;;;1.67;0.90;;;8.30;99.90;;;;;;6242040;22;20447;-58
2022/04/16 07:59:59;;;;;;;2.80;1.10;;;8.30;99.90;;;;;;6241326;22;20340;-62
2022/04/16 08:02:25;;;;;;;2.00;0.97;;;8.20;99.90;;;;;;6242159;22;20428;-58
2022/04/16 08:04:50;;;;;;;1.70;0.73;;;8.20;99.90;;;;;;6245797;22;20411;-57
2022/04/16 08:07:15;;;;;;;1.10;0.70;;;8.30;99.90;;;;;;6243254;22;20382;-58
2022/04/16 08:09:41;;;;;;;2.63;1.10;;;8.30;99.90;;;;;;6268026;22;20753;-59
2022/04/16 08:12:07;;;;;;;1.30;1.00;;;8.40;99.90;;;;;;6272634;22;20355;-59
2022/04/16 08:14:33;;;;;;;2.92;1.27;;;8.50;99.90;;;;;;6243525;22;20610;-57
2022/04/16 08:16:59;;;;;;;2.83;1.10;;;8.60;99.90;;;;;;6244541;22;20742;-59
2022/04/16 08:19:25;;;;;;;1.35;0.90;;;8.60;99.90;;;;;;6245257;22;20753;-57
2022/04/16 08:21:53;;;;;;;1.35;0.75;;;8.60;99.90;;;;;;6241365;22;20614;-58
2022/04/16 08:24:38;;;;;;;1.67;0.88;;;8.60;99.90;;;;;;6266934;22;20407;-59
2022/04/16 08:27:04;;;;;;;2.25;0.82;;;8.70;99.90;;;;;;6267304;22;20349;-59
2022/04/16 08:29:30;;;;;;;1.00;0.88;;;8.70;99.90;;;;;;6239604;22;20345;-57
2022/04/16 08:31:55;;;;;;;2.13;1.10;;;8.80;99.90;;;;;;6242199;22;20396;-59
2022/04/16 08:34:21;;;;;;;1.97;0.80;;;8.90;99.90;;;;;;6266404;22;20414;-59
2022/04/16 08:36:46;;;;;;;0.70;0.60;;;8.90;99.90;;;;;;6244230;22;20424;-58
2022/04/16 08:39:12;;;;;;;3.25;0.85;;;9.00;99.90;;;;;;6264824;22;20371;-59
2022/04/16 08:41:39;;;;;;;1.40;0.83;;;9.00;99.90;;;;;;6267988;22;20607;-56
2022/04/16 08:44:05;;;;;;;1.02;0.70;;;9.00;99.90;;;;;;6269089;22;20364;-54
2022/04/16 08:46:32;;;;;;;1.23;0.60;;;9.10;99.90;;;;;;6268181;22;20729;-57
2022/04/16 08:48:59;;;;;;;1.80;0.90;;;9.20;99.90;;;;;;6267971;22;20356;-57
2022/04/16 08:51:28;;;;;;;1.40;0.90;;;9.20;99.90;;;;;;6267207;22;20611;-58
2022/04/16 08:53:54;;;;;;;2.05;0.82;;;9.20;99.90;;;;;;6265219;22;20363;-57
2022/04/16 08:56:20;;;;;;;1.13;0.70;;;9.30;99.90;;;;;;6265209;22;20356;-58
2022/04/16 08:58:45;;;;;;;2.40;0.90;;;9.30;99.90;;;;;;6263307;22;20352;-59
2022/04/16 09:01:11;;;;;;;1.17;0.93;;;9.40;99.90;;;;;;6261049;22;20421;-55
2022/04/16 09:03:40;;;;;;;1.95;0.98;;;9.50;99.90;;;;;;6258762;22;20399;-56
2022/04/16 09:06:06;;;;;;;1.50;0.90;;;9.60;99.90;;;;;;6262555;22;20678;-57
2022/04/16 09:08:33;;;;;;;0.93;0.73;;;9.60;99.90;;;;;;6262820;22;20615;-58
2022/04/16 09:11:11;;;;;;;1.57;0.70;;;9.70;99.90;;;;;;6266488;22;20340;-56
2022/04/16 09:13:56;;;;;;;1.33;0.73;;;9.70;99.90;;;;;;6268426;22;20423;-58
2022/04/16 09:16:23;;;;;;;1.30;0.93;;;9.80;99.90;;;;;;6269423;22;20407;-57
2022/04/16 09:18:54;;;;;;;2.42;0.77;;;9.80;99.90;;;;;;6268395;22;20451;-59
2022/04/16 09:21:24;;;;;;;0.98;0.70;;;9.80;99.90;;;;;;6266206;22;20628;-59
2022/04/16 09:23:57;;;;;;;0.90;0.70;;;9.80;99.90;;;;;;6265907;22;20378;-59
2022/04/16 09:26:26;;;;;;;1.10;0.60;;;9.80;99.90;;;;;;6268492;22;20348;-59
2022/04/16 09:28:52;;;;;;;1.20;0.70;;;9.90;99.90;;;;;;6265950;22;20352;-59
2022/04/16 09:31:18;;;;;;;1.30;0.83;;;10.00;99.90;;;;;;6264936;22;20360;-58
2022/04/16 09:33:45;;;;;;;1.00;0.70;;;10.10;99.90;;;;;;6266747;22;20364;-55
2022/04/16 09:36:10;;;;;;;1.20;0.70;;;10.10;99.90;;;;;;6264351;22;20443;-58
2022/04/16 09:38:37;;;;;;;1.00;0.80;;;10.10;99.90;;;;;;6239721;22;20356;-59
2022/04/16 09:41:08;;;;;;;2.27;0.90;;;10.10;99.90;;;;;;6241375;22;20348;-56
2022/04/16 09:43:35;;;;;;;1.80;1.00;;;10.20;99.90;;;;;;6241831;22;20362;-58
2022/04/16 09:46:22;;;;;;;1.40;0.50;;;10.20;99.90;;;;;;6238995;22;20364;-58
2022/04/16 09:48:48;;;;;;;1.90;0.80;;;10.30;99.90;;;;;;6241835;22;20360;-57
2022/04/16 09:51:16;;;;;;;3.33;1.00;;;10.30;99.90;;;;;;6265303;22;20383;-58
2022/04/16 09:53:43;;;;;;;1.83;1.00;;;10.30;99.90;;;;;;6263652;22;20489;-57
2022/04/16 09:56:11;;;;;;;0.80;0.80;;;10.40;99.90;;;;;;6236580;22;20399;-56
2022/04/16 09:58:39;;;;;;;1.73;0.90;;;10.40;99.90;;;;;;6231701;22;20380;-57
2022/04/16 10:01:05;;;;;;;1.42;0.93;;;10.50;99.90;;;;;;6228834;22;20363;-58
2022/04/16 10:03:32;;;;;;;1.52;0.90;;;10.50;99.90;;;;;;6232140;22;20431;-59
2022/04/16 10:05:58;;;;;;;1.23;0.70;;;10.60;99.90;;;;;;6232925;22;20376;-57
2022/04/16 10:08:25;;;;;;;2.13;1.23;;;10.50;99.90;;;;;;6234528;22;20688;-58
2022/04/16 10:10:55;;;;;;;1.85;1.20;;;10.60;99.90;;;;;;6235968;22;20353;-58
2022/04/16 10:13:22;;;;;;;2.17;1.20;;;10.60;99.90;;;;;;6236883;22;20384;-58
2022/04/16 10:16:02;;;;;;;2.30;1.70;;;10.70;99.90;;;;;;6236843;22;20371;-58
2022/04/16 10:18:33;;;;;;;1.33;1.02;;;10.80;99.90;;;;;;6237934;22;20356;-58
2022/04/16 10:21:03;;;;;;;1.65;0.80;;;10.70;99.90;;;;;;6239614;22;20352;-57
2022/04/16 10:23:41;;;;;;;1.67;0.80;;;10.70;99.90;;;;;;6239744;22;20398;-59
2022/04/16 10:26:13;;;;;;;1.73;1.10;;;10.70;99.90;;;;;;6240367;22;20358;-57
2022/04/16 10:28:50;;;;;;;2.40;1.50;;;10.80;99.90;;;;;;6240289;22;20452;-58
2022/04/16 10:31:27;;;;;;;1.33;1.08;;;10.90;99.90;;;;;;6267281;22;20340;-59
2022/04/16 10:34:07;;;;;;;1.50;1.30;;;10.90;99.90;;;;;;6269646;22;20344;-58
2022/04/16 10:36:40;;;;;;;1.52;1.00;;;11.00;99.90;;;;;;6266747;22;20873;-59
2022/04/16 10:39:14;;;;;;;2.60;1.10;;;11.00;99.90;;;;;;6241119;22;20367;-61
2022/04/16 10:41:39;;;;;;;2.90;0.80;;;11.10;99.90;;;;;;6241412;22;20783;-61
2022/04/16 10:44:09;;;;;;;1.88;0.80;;;11.30;99.90;;;;;;6237431;22;20370;-61
2022/04/16 10:46:48;;;;;;;1.02;0.88;;;11.40;99.90;;;;;;6238211;22;20348;-61
2022/04/16 10:49:22;;;;;;;1.75;1.02;;;11.50;99.90;;;;;;6239075;22;20348;-60
2022/04/16 10:51:50;;;;;;;1.30;0.90;;;11.60;99.90;;;;;;6270261;22;20340;-61
2022/04/16 10:54:32;;;;;;;1.35;1.00;;;11.80;99.90;;;;;;6269427;22;20341;-61
2022/04/16 10:57:00;;;;;;;1.00;0.90;;;11.90;99.90;;;;;;6218192;22;20408;-61
2022/04/16 10:59:43;;;;;;;1.27;0.90;;;12.00;99.90;;;;;;6190806;22;20368;-61
2022/04/16 11:02:24;;;;;;;1.48;1.00;;;12.10;99.90;;;;;;6233874;22;20478;-57
2022/04/16 11:05:00;;;;;;;1.60;0.98;;;12.20;99.90;;;;;;6232600;22;20371;-54
2022/04/16 11:07:27;;;;;;;0.80;0.80;;;12.40;99.90;;;;;;6230690;22;20600;-57
2022/04/16 11:09:53;;;;;;;1.10;0.70;;;12.70;99.90;;;;;;6234532;22;20780;-54
2022/04/16 11:12:23;;;;;;;0.90;0.70;;;13.00;99.90;;;;;;6237247;22;20343;-57
2022/04/16 11:14:49;;;;;;;1.33;0.75;;;13.30;99.90;;;;;;6235531;22;20360;-56
2022/04/16 11:17:15;;;;;;;1.10;1.00;;;13.50;99.90;;;;;;6235650;22;20340;-56
2022/04/16 11:19:43;;;;;;;1.63;1.00;;;13.60;99.90;;;;;;6237697;22;20450;-58
2022/04/16 11:22:08;;;;;;;1.40;0.80;;;13.80;99.90;;;;;;6265713;22;20356;-58
2022/04/16 11:24:35;;;;;;;1.10;0.80;;;13.90;99.90;;;;;;6236858;22;20644;-57
2022/04/16 11:35:23;;;;;;;1.30;0.80;;;14.70;99.90;;;;;;6264210;22;20348;-58
2022/04/16 11:37:56;;;;;;;2.53;1.50;;;14.90;99.90;;;;;;6255222;22;20376;-58
2022/04/16 11:40:21;;;;;;;1.98;1.08;;;15.10;99.90;;;;;;6265881;22;20364;-59
2022/04/16 11:42:47;;;;;;;0.90;0.80;;;15.10;99.90;;;;;;6263524;22;20442;-56
2022/04/16 11:45:15;;;;;;;1.20;1.10;;;15.30;99.90;;;;;;6261641;22;20376;-57
2022/04/16 11:47:41;;;;;;;1.35;1.20;;;15.50;99.90;;;;;;6263808;22;20452;-59
2022/04/16 11:50:10;;;;;;;1.35;1.20;;;15.30;99.90;;;;;;6262996;22;20352;-58
2022/04/16 11:52:36;;;;;;;1.20;1.10;;;15.60;99.90;;;;;;6258653;22;20348;-54
2022/04/16 11:55:15;;;;;;;1.57;1.13;;;15.70;99.90;;;;;;6258917;22;20363;-56
2022/04/16 11:57:49;;;;;;;1.17;0.90;;;15.90;99.90;;;;;;6257331;22;20762;-58
2022/04/16 12:00:18;;;;;;;1.23;0.95;;;16.10;99.90;;;;;;6264492;22;20363;-58
2022/04/16 12:02:48;;;;;;;1.25;0.90;;;16.20;99.90;;;;;;6268718;22;20872;-58
2022/04/16 12:05:27;;;;;;;0.88;0.82;;;16.10;99.90;;;;;;6265849;22;20459;-58
2022/04/16 12:07:56;;;;;;;0.80;0.80;;;16.20;99.90;;;;;;6266709;22;20352;-56
2022/04/16 12:10:25;;;;;;;1.42;1.10;;;16.40;99.90;;;;;;6265278;22;20340;-59
2022/04/16 12:12:56;;;;;;;1.17;1.08;;;16.80;99.90;;;;;;6267933;22;20336;-58
2022/04/16 12:15:25;;;;;;;1.38;0.90;;;17.10;99.90;;;;;;6266949;22;20425;-58
2022/04/16 12:18:09;;;;;;;1.27;1.00;;;17.30;99.90;;;;;;6267012;22;20447;-58
2022/04/16 12:20:43;;;;;;;1.23;0.88;;;17.30;99.90;;;;;;6266507;22;20437;-58
2022/04/16 12:23:19;;;;;;;0.90;0.80;;;17.40;99.90;;;;;;6269113;22;20417;-58
2022/04/16 12:25:48;;;;;;;1.03;0.87;;;17.50;99.90;;;;;;6269139;22;20367;-57
2022/04/16 12:28:16;;;;;;;0.93;0.82;;;17.80;99.90;;;;;;6268028;22;20354;-57
2022/04/16 12:30:52;;;;;;;2.53;1.40;;;17.90;99.90;;;;;;6267340;22;20669;-58
2022/04/16 12:33:27;;;;;;;1.23;1.00;;;17.70;99.90;;;;;;6265341;22;20743;-58
2022/04/16 12:35:57;;;;;;;1.52;1.23;;;17.60;99.90;;;;;;6264989;22;20637;-55
2022/04/16 12:38:25;;;;;;;1.25;0.90;;;17.40;99.90;;;;;;6265243;22;20411;-58
2022/04/16 12:40:52;;;;;;;2.13;1.23;;;17.70;99.90;;;;;;6267393;22;20352;-55
2022/04/16 12:43:18;;;;;;;1.15;1.05;;;17.80;99.90;;;;;;6267729;22;20402;-56
2022/04/16 12:45:44;;;;;;;1.80;1.30;;;17.80;99.90;;;;;;6268904;22;20368;-58
2022/04/16 12:48:09;;;;;;;2.45;1.30;;;17.90;99.90;;;;;;6269659;22;20619;-57
2022/04/16 12:50:35;;;;;;;2.10;1.40;;;18.00;99.90;;;;;;6272457;22;20445;-56
2022/04/16 12:53:04;;;;;;;1.40;1.10;;;17.90;99.90;;;;;;6271316;22;20427;-55
2022/04/16 12:55:30;;;;;;;1.30;1.20;;;18.20;99.90;;;;;;6270410;22;20358;-59
2022/04/16 12:57:56;;;;;;;1.67;1.15;;;18.50;99.90;;;;;;6269744;22;20812;-57
2022/04/16 13:00:22;;;;;;;1.58;1.10;;;18.50;99.90;;;;;;6269340;22;20372;-58
2022/04/16 13:02:48;;;;;;;2.10;1.27;;;18.60;99.90;;;;;;6270767;22;20344;-58
2022/04/16 13:05:17;;;;;;;1.70;1.42;;;18.70;99.90;;;;;;6267998;22;20360;-58
2022/04/16 13:07:44;;;;;;;2.00;1.40;;;19.00;99.90;;;;;;6268063;22;20332;-57
2022/04/16 13:10:15;;;;;;;2.45;1.60;;;19.10;99.90;;;;;;6266937;22;21354;-59
2022/04/16 13:12:41;;;;;;;2.10;1.65;;;19.10;99.90;;;;;;6266383;22;20367;-58
2022/04/16 13:15:08;;;;;;;2.40;1.58;;;19.00;99.90;;;;;;6260176;22;20361;-56
2022/04/16 13:17:34;;;;;;;1.55;1.42;;;19.40;99.90;;;;;;6257248;22;20705;-58
2022/04/16 13:20:00;;;;;;;3.00;2.20;;;19.70;99.90;;;;;;6255559;22;20348;-58